createdAt,value
2023-04-17T00:00:50.772Z,65.10
2023-04-17T00:03:20.086Z,65.30
2023-04-17T00:05:49.517Z,65.70
2023-04-17T00:08:23.340Z,65.20
2023-04-17T00:11:00.670Z,65.40
2023-04-17T00:13:22.628Z,65.40
2023-04-17T00:15:51.924Z,65.70
2023-04-17T00:18:21.436Z,65.90
2023-04-17T00:20:50.837Z,65.50
2023-04-17T00:23:20.232Z,65.60
2023-04-17T00:25:49.642Z,65.50
2023-04-17T00:28:18.945Z,65.40
2023-04-17T00:30:48.245Z,65.60
2023-04-17T00:33:17.436Z,65.60
2023-04-17T00:35:46.648Z,65.50
2023-04-17T00:38:15.948Z,66.00
2023-04-17T00:40:45.334Z,65.90
2023-04-17T00:43:14.417Z,65.60
2023-04-17T00:45:43.664Z,65.50
2023-04-17T00:48:12.937Z,65.60
2023-04-17T00:50:45.114Z,65.40
2023-04-17T00:53:14.522Z,65.70
2023-04-17T00:55:43.810Z,65.40
2023-04-17T00:58:13.113Z,65.70
2023-04-17T01:00:42.537Z,65.50
2023-04-17T01:03:12.017Z,65.50
2023-04-17T01:05:41.424Z,65.50
2023-04-17T01:08:10.611Z,65.40
2023-04-17T01:10:40.027Z,65.30
2023-04-17T01:13:09.830Z,65.40
2023-04-17T01:15:39.346Z,65.00
2023-04-17T01:18:08.802Z,65.30
2023-04-17T01:20:38.018Z,65.20
2023-04-17T01:23:07.235Z,65.50
2023-04-17T01:25:36.750Z,65.30
2023-04-17T01:28:06.347Z,65.30
2023-04-17T01:30:35.994Z,65.30
2023-04-17T01:33:06.772Z,65.30
2023-04-17T01:35:35.989Z,65.30
2023-04-17T01:38:05.190Z,65.40
2023-04-17T01:40:34.496Z,65.20
2023-04-17T01:43:03.681Z,65.30
2023-04-17T01:45:32.781Z,65.30
2023-04-17T01:48:02.020Z,65.30
2023-04-17T01:50:31.080Z,65.30
2023-04-17T01:53:00.069Z,65.30
2023-04-17T01:55:29.115Z,65.20
2023-04-17T01:57:58.266Z,65.20
2023-04-17T02:00:27.366Z,65.60
2023-04-17T02:02:56.710Z,65.20
2023-04-17T02:05:25.851Z,65.30
2023-04-17T02:07:54.954Z,65.20
2023-04-17T02:10:23.844Z,65.30
2023-04-17T02:12:53.032Z,65.20
2023-04-17T02:15:21.936Z,65.20
2023-04-17T02:17:50.876Z,65.20
2023-04-17T02:20:19.822Z,65.30
2023-04-17T02:22:48.918Z,65.30
2023-04-17T02:25:17.908Z,65.30
2023-04-17T02:27:46.929Z,65.20
2023-04-17T02:30:16.019Z,65.90
2023-04-17T02:32:45.033Z,65.20
2023-04-17T02:35:14.286Z,65.40
2023-04-17T02:37:43.499Z,65.30
2023-04-17T02:40:12.724Z,65.30
2023-04-17T02:42:41.674Z,65.20
2023-04-17T02:45:10.768Z,65.30
2023-04-17T02:47:40.812Z,65.30
2023-04-17T02:50:10.707Z,65.30
2023-04-17T02:52:41.244Z,65.30
2023-04-17T02:55:10.556Z,65.40
2023-04-17T02:57:40.350Z,65.40
2023-04-17T03:00:09.443Z,65.40
2023-04-17T03:02:38.816Z,65.40
2023-04-17T03:05:08.156Z,65.40
2023-04-17T03:07:37.352Z,65.40
2023-04-17T03:10:06.651Z,65.40
2023-04-17T03:12:35.765Z,65.40
2023-04-17T03:15:06.423Z,65.50
2023-04-17T03:17:35.290Z,65.50
2023-04-17T03:20:04.382Z,65.50
2023-04-17T03:22:33.467Z,65.50
2023-04-17T03:25:02.767Z,65.60
2023-04-17T03:27:33.186Z,65.60
2023-04-17T03:30:02.393Z,65.60
2023-04-17T03:32:32.248Z,65.60
2023-04-17T03:35:01.206Z,65.80
2023-04-17T03:37:30.288Z,65.80
2023-04-17T03:39:59.490Z,65.70
2023-04-17T03:42:28.683Z,65.80
2023-04-17T03:44:57.589Z,65.70
2023-04-17T03:47:27.017Z,65.70
2023-04-17T03:49:57.303Z,65.70
2023-04-17T03:52:27.222Z,65.60
2023-04-17T03:54:57.833Z,65.90
2023-04-17T03:57:27.038Z,65.80
2023-04-17T03:59:56.239Z,65.80
2023-04-17T04:02:25.857Z,65.90
2023-04-17T04:04:55.718Z,65.70
2023-04-17T04:07:25.059Z,65.70
2023-04-17T04:09:54.571Z,65.90
2023-04-17T04:12:23.871Z,65.70
2023-04-17T04:14:52.760Z,65.60
2023-04-17T04:17:21.914Z,65.60
2023-04-17T04:19:51.059Z,65.70
2023-04-17T04:22:20.449Z,65.70
2023-04-17T04:24:50.774Z,66.30
2023-04-17T04:27:20.080Z,65.70
2023-04-17T04:29:49.285Z,65.70
2023-04-17T04:32:19.746Z,65.50
2023-04-17T04:34:48.877Z,65.50
2023-04-17T04:37:18.716Z,65.70
2023-04-17T04:39:48.432Z,65.70
2023-04-17T04:42:17.313Z,65.70
2023-04-17T04:44:56.868Z,65.60
2023-04-17T04:47:27.338Z,65.80
2023-04-17T04:49:56.486Z,65.60
2023-04-17T04:52:25.998Z,66.10
2023-04-17T04:54:56.622Z,65.70
2023-04-17T04:57:26.242Z,65.60
2023-04-17T04:59:56.659Z,65.60
2023-04-17T05:02:30.029Z,65.50
2023-04-17T05:04:59.519Z,65.50
2023-04-17T05:07:29.985Z,65.60
2023-04-17T05:09:59.187Z,65.60
2023-04-17T05:12:29.517Z,65.50
2023-04-17T05:14:58.502Z,65.30
2023-04-17T05:17:29.078Z,65.30
2023-04-17T05:19:58.130Z,65.30
2023-04-17T05:22:27.021Z,65.30
2023-04-17T05:25:00.104Z,65.30
2023-04-17T05:27:29.208Z,65.10
2023-04-17T05:29:58.302Z,65.20
2023-04-17T05:32:27.537Z,65.30
2023-04-17T05:34:57.926Z,65.20
2023-04-17T05:37:27.941Z,65.10
2023-04-17T05:39:57.043Z,65.10
2023-04-17T05:42:26.237Z,64.90
2023-04-17T05:44:55.545Z,64.80
2023-04-17T05:47:24.444Z,64.70
2023-04-17T05:49:54.339Z,64.70
2023-04-17T05:52:23.467Z,64.60
2023-04-17T05:54:52.662Z,64.70
2023-04-17T05:57:22.146Z,64.40
2023-04-17T05:59:51.261Z,64.50
2023-04-17T06:02:20.865Z,64.50
2023-04-17T06:04:50.146Z,64.40
2023-04-17T06:07:19.237Z,64.40
2023-04-17T06:09:48.243Z,64.40
2023-04-17T06:12:17.117Z,64.10
2023-04-17T06:14:46.322Z,64.20
2023-04-17T06:17:16.118Z,64.20
2023-04-17T06:19:45.112Z,64.10
2023-04-17T06:22:14.223Z,64.10
2023-04-17T06:24:43.114Z,64.00
2023-04-17T06:27:12.628Z,64.60
2023-04-17T06:29:41.611Z,64.00
2023-04-17T06:32:11.030Z,64.40
2023-04-17T06:34:52.575Z,63.90
2023-04-17T06:37:10.615Z,63.90
2023-04-17T06:39:39.942Z,63.90
2023-04-17T06:42:09.253Z,63.80
2023-04-17T06:44:39.573Z,63.70
2023-04-17T06:47:12.141Z,63.60
2023-04-17T06:49:41.154Z,63.60
2023-04-17T06:52:10.039Z,63.60
2023-04-17T06:54:39.233Z,63.50
2023-04-17T06:57:08.329Z,63.40
2023-04-17T06:59:37.214Z,63.30
2023-04-17T07:02:06.308Z,63.30
2023-04-17T07:04:35.314Z,63.30
2023-04-17T07:07:04.609Z,63.30
2023-04-17T07:09:33.798Z,63.20
2023-04-17T07:12:03.108Z,63.20
2023-04-17T07:14:36.360Z,63.10
2023-04-17T07:17:05.688Z,63.00
2023-04-17T07:19:34.891Z,63.00
2023-04-17T07:22:04.025Z,62.90
2023-04-17T07:24:33.309Z,62.90
2023-04-17T07:27:02.589Z,62.80
2023-04-17T07:29:31.899Z,62.70
2023-04-17T07:32:01.137Z,62.60
2023-04-17T07:34:30.286Z,62.60
2023-04-17T07:36:59.497Z,62.60
2023-04-17T07:39:28.903Z,62.50
2023-04-17T07:41:57.956Z,62.50
2023-04-17T07:44:27.189Z,62.50
2023-04-17T07:46:56.430Z,62.30
2023-04-17T07:49:25.487Z,62.20
2023-04-17T07:51:54.786Z,62.20
2023-04-17T07:54:24.081Z,62.20
2023-04-17T07:56:53.378Z,62.10
2023-04-17T07:59:22.985Z,62.10
2023-04-17T08:01:52.386Z,62.10
2023-04-17T08:04:21.853Z,62.00
2023-04-17T08:06:51.084Z,62.00
2023-04-17T08:09:20.503Z,62.10
2023-04-17T08:11:56.888Z,61.80
2023-04-17T08:14:20.116Z,61.90
2023-04-17T08:16:49.363Z,61.70
2023-04-17T08:19:18.610Z,61.60
2023-04-17T08:21:47.696Z,61.60
2023-04-17T08:24:19.141Z,61.70
2023-04-17T08:26:47.338Z,61.60
2023-04-17T08:29:16.631Z,61.30
2023-04-17T08:31:45.937Z,61.40
2023-04-17T08:34:15.712Z,61.20
2023-04-17T08:36:45.162Z,61.10
2023-04-17T08:39:14.873Z,61.50
2023-04-17T08:41:44.282Z,61.00
2023-04-17T08:44:13.358Z,60.90
2023-04-17T08:46:42.593Z,60.90
2023-04-17T08:49:12.054Z,60.90
2023-04-17T08:51:41.482Z,60.90
2023-04-17T08:54:10.881Z,61.00
2023-04-17T08:56:39.951Z,60.90
2023-04-17T08:59:08.883Z,60.90
2023-04-17T09:01:38.184Z,60.80
2023-04-17T09:04:07.816Z,60.60
2023-04-17T09:06:37.171Z,60.80
2023-04-17T09:09:06.371Z,60.70
2023-04-17T09:11:35.668Z,60.80
2023-04-17T09:14:04.759Z,60.80
2023-04-17T09:16:33.914Z,60.70
2023-04-17T13:01:32.165Z,57.30
2023-04-17T13:04:01.822Z,56.70
2023-04-17T13:06:31.050Z,57.00
2023-04-17T13:08:59.937Z,56.50
2023-04-17T13:11:28.801Z,56.30
2023-04-17T13:13:57.935Z,56.10
2023-04-17T13:16:27.136Z,56.10
2023-04-17T13:18:56.120Z,56.00
2023-04-17T13:21:25.230Z,55.90
2023-04-17T13:23:54.205Z,56.00
2023-04-17T13:26:23.090Z,56.30
2023-04-17T13:28:52.089Z,56.30
2023-04-17T13:31:21.348Z,56.60
2023-04-17T13:33:53.129Z,57.80
2023-04-17T13:36:21.173Z,57.40
2023-04-17T13:38:50.317Z,54.10
2023-04-17T13:41:19.213Z,51.50
2023-04-17T13:43:48.220Z,50.70
2023-04-17T13:46:17.510Z,51.30
2023-04-17T13:48:46.509Z,50.50
2023-04-17T13:51:15.392Z,51.10
2023-04-17T13:53:44.585Z,51.60
2023-04-17T13:56:13.474Z,52.20
2023-04-17T13:58:42.672Z,53.20
2023-04-17T14:01:11.793Z,53.50
2023-04-17T14:03:42.381Z,53.60
2023-04-17T14:06:11.182Z,53.90
2023-04-17T14:08:44.242Z,54.50
2023-04-17T14:11:12.979Z,54.30
2023-04-17T14:13:41.859Z,54.70
2023-04-17T14:16:13.760Z,54.80
2023-04-17T14:18:42.903Z,54.80
2023-04-17T14:21:12.018Z,55.10
2023-04-17T14:23:41.205Z,55.20
2023-04-17T14:26:10.204Z,55.20
2023-04-17T14:28:39.101Z,55.00
2023-04-17T14:31:08.243Z,55.20
2023-04-17T14:33:37.284Z,55.20
2023-04-17T14:36:06.224Z,55.30
2023-04-17T14:38:35.483Z,55.20
2023-04-17T14:41:04.824Z,55.20
2023-04-17T14:43:33.776Z,55.20
2023-04-17T14:46:02.668Z,55.40
2023-04-17T14:48:34.345Z,55.70
2023-04-17T14:51:02.099Z,55.70
2023-04-17T14:53:31.102Z,55.90
2023-04-17T14:56:00.289Z,55.60
2023-04-17T14:58:29.248Z,55.70
2023-04-17T15:00:58.493Z,55.70
2023-04-17T15:03:27.407Z,55.90
2023-04-17T15:05:56.656Z,56.00
2023-04-17T15:08:25.761Z,56.00
2023-04-17T15:10:54.955Z,56.10
2023-04-17T15:13:24.479Z,56.00
2023-04-17T15:15:53.308Z,56.00
2023-04-17T15:18:22.342Z,55.90
2023-04-17T15:20:51.195Z,56.10
2023-04-17T15:23:20.128Z,56.40
2023-04-17T15:25:49.378Z,57.30
2023-04-17T15:28:18.408Z,57.70
2023-04-17T15:30:47.300Z,57.90
2023-04-17T15:33:16.213Z,58.50
2023-04-17T15:35:45.195Z,58.60
2023-04-17T15:38:14.180Z,58.50
2023-04-17T15:40:42.972Z,58.80
2023-04-17T15:43:11.844Z,58.80
2023-04-17T15:45:40.992Z,58.50
2023-04-17T15:48:09.984Z,58.60
2023-04-17T15:50:39.044Z,58.60
2023-04-17T15:53:09.039Z,58.20
2023-04-17T15:55:38.475Z,58.30
2023-04-17T15:58:07.461Z,58.30
2023-04-17T16:00:36.665Z,58.20
2023-04-17T16:03:05.829Z,58.30
2023-04-17T16:05:34.855Z,58.80
2023-04-17T16:08:03.997Z,58.80
2023-04-17T16:10:33.349Z,58.80
2023-04-17T16:13:05.303Z,58.90
2023-04-17T16:15:34.251Z,58.40
2023-04-17T16:18:03.449Z,59.40
2023-04-17T16:20:32.386Z,59.10
2023-04-17T16:23:03.704Z,58.50
2023-04-17T16:25:32.637Z,59.30
2023-04-17T16:28:01.520Z,59.40
2023-04-17T16:30:30.406Z,59.40
2023-04-17T16:32:59.644Z,59.60
2023-04-17T16:35:28.906Z,59.40
2023-04-17T16:37:57.797Z,59.60
2023-04-17T16:40:28.442Z,59.80
2023-04-17T16:42:57.322Z,59.90
2023-04-17T16:45:26.220Z,60.00
2023-04-17T16:48:00.455Z,60.00
2023-04-17T16:50:29.851Z,59.90
2023-04-17T16:53:00.256Z,60.00
2023-04-17T16:55:29.144Z,60.60
2023-04-17T16:57:58.148Z,60.30
2023-04-17T17:00:27.243Z,60.70
2023-04-17T17:02:56.156Z,60.50
2023-04-17T17:05:26.653Z,59.90
2023-04-17T17:07:55.862Z,59.80
2023-04-17T17:10:24.953Z,60.30
2023-04-17T17:12:53.845Z,60.30
2023-04-17T17:15:22.705Z,60.80
2023-04-17T17:17:51.972Z,60.60
2023-04-17T17:20:20.921Z,60.60
2023-04-17T17:22:50.125Z,61.00
2023-04-17T17:25:19.323Z,60.90
2023-04-17T17:27:48.518Z,61.00
2023-04-17T17:30:17.539Z,61.00
2023-04-17T17:32:46.657Z,61.50
2023-04-17T17:35:15.606Z,61.20
2023-04-17T17:37:44.596Z,61.10
2023-04-17T17:40:14.008Z,61.20
2023-04-17T17:42:42.888Z,60.90
2023-04-17T17:45:11.780Z,61.20
2023-04-17T17:47:40.804Z,61.40
2023-04-17T17:50:09.985Z,61.10
2023-04-17T17:52:38.961Z,61.10
2023-04-17T17:55:08.064Z,61.10
2023-04-17T17:57:46.007Z,61.00
2023-04-17T18:00:07.213Z,61.10
2023-04-17T18:02:36.380Z,61.30
2023-04-17T18:05:05.700Z,61.00
2023-04-17T18:07:34.757Z,61.00
2023-04-17T18:10:03.768Z,61.30
2023-04-17T18:12:32.759Z,61.30
2023-04-17T18:15:02.068Z,61.20
2023-04-17T18:17:32.823Z,61.10
2023-04-17T18:20:01.620Z,61.00
2023-04-17T18:22:30.569Z,61.00
2023-04-17T18:24:59.883Z,61.30
2023-04-17T18:27:29.282Z,61.10
2023-04-17T18:29:58.682Z,61.30
2023-04-17T18:32:27.889Z,61.20
2023-04-17T18:34:57.180Z,61.10
2023-04-17T18:37:26.587Z,61.20
2023-04-17T18:39:55.766Z,61.20
2023-04-17T18:42:24.973Z,61.20
2023-04-17T18:44:58.890Z,61.20
2023-04-17T18:47:28.339Z,61.20
2023-04-17T18:49:57.590Z,61.30
2023-04-17T18:52:27.103Z,61.30
2023-04-17T18:54:56.406Z,61.60
2023-04-17T18:57:25.580Z,61.50
2023-04-17T18:59:55.002Z,61.90
2023-04-17T19:02:24.009Z,61.70
2023-04-17T19:04:54.480Z,61.90
2023-04-17T19:07:23.722Z,61.90
2023-04-17T19:09:53.019Z,61.90
2023-04-17T19:12:22.217Z,61.70
2023-04-17T19:14:54.389Z,61.80
2023-04-17T19:17:23.939Z,62.40
2023-04-17T19:19:52.882Z,61.50
2023-04-17T19:22:22.186Z,61.80
2023-04-17T19:24:51.386Z,61.90
2023-04-17T19:27:20.475Z,61.50
2023-04-17T19:29:49.575Z,61.70
2023-04-17T19:32:19.250Z,61.80
2023-04-17T19:37:40.312Z,61.90
2023-04-17T19:40:21.411Z,61.60
2023-04-17T19:42:39.725Z,61.90
2023-04-17T19:45:08.719Z,62.10
2023-04-17T19:47:37.893Z,62.10
2023-04-17T19:50:07.207Z,62.40
2023-04-17T19:52:36.117Z,62.60
2023-04-17T19:55:04.992Z,62.50
2023-04-17T19:57:34.200Z,62.50
2023-04-17T20:00:03.144Z,62.50
2023-04-17T20:02:33.723Z,62.50
2023-04-17T20:05:03.148Z,62.70
2023-04-17T20:07:32.124Z,62.50
2023-04-17T20:10:02.539Z,62.30
2023-04-17T20:12:31.646Z,62.40
2023-04-17T20:15:00.649Z,62.10
2023-04-17T20:17:29.664Z,62.10
2023-04-17T20:19:58.930Z,62.00
2023-04-17T20:22:27.923Z,62.10
2023-04-17T20:24:56.806Z,61.90
2023-04-17T20:27:25.912Z,61.90
2023-04-17T20:29:55.004Z,61.80
2023-04-17T20:32:23.910Z,61.50
2023-04-17T20:34:52.782Z,61.50
2023-04-17T20:37:23.711Z,60.90
2023-04-17T20:39:52.098Z,60.80
2023-04-17T20:42:21.011Z,60.60
2023-04-17T20:44:50.095Z,60.50
2023-04-17T20:47:19.080Z,60.60
2023-04-17T20:49:48.078Z,60.80
2023-04-17T20:52:17.276Z,61.00
2023-04-17T20:54:46.477Z,61.20
2023-04-17T20:57:15.472Z,61.20
2023-04-17T20:59:44.456Z,61.10
2023-04-17T21:02:13.555Z,60.90
2023-04-17T21:04:43.113Z,61.50
2023-04-17T21:07:12.251Z,61.60
2023-04-17T21:09:41.347Z,62.20
2023-04-17T21:12:10.244Z,62.30
2023-04-17T21:14:39.698Z,62.00
2023-04-17T21:17:09.247Z,62.60
2023-04-17T21:19:38.355Z,62.60
2023-04-17T21:22:07.245Z,62.80
2023-04-17T21:24:36.127Z,63.00
2023-04-17T21:27:05.130Z,63.00
2023-04-17T21:29:34.239Z,62.90
2023-04-17T21:32:03.189Z,63.00
2023-04-17T21:34:32.203Z,63.00
2023-04-17T21:37:01.329Z,63.60
2023-04-17T21:39:31.655Z,64.00
2023-04-17T21:42:00.541Z,63.60
2023-04-17T21:44:29.818Z,63.00
2023-04-17T21:46:58.710Z,62.70
2023-04-17T21:49:27.707Z,62.20
2023-04-17T21:51:56.699Z,61.90
2023-04-17T21:54:25.698Z,61.60
2023-04-17T21:56:54.579Z,61.50
2023-04-17T21:59:23.683Z,61.50
2023-04-17T22:01:52.605Z,60.30
2023-04-17T22:04:21.714Z,60.30
2023-04-17T22:06:50.765Z,60.00
2023-04-17T22:09:19.661Z,59.90
2023-04-17T22:11:48.521Z,60.00
2023-04-17T22:14:17.738Z,59.90
2023-04-17T22:16:46.905Z,60.00
2023-04-17T22:19:16.048Z,59.90
2023-04-17T22:21:44.924Z,60.50
2023-04-17T22:24:14.063Z,60.60
2023-04-17T22:26:43.223Z,60.10
2023-04-17T22:29:12.337Z,60.30
2023-04-17T22:31:41.313Z,60.20
2023-04-17T22:34:10.197Z,60.20
2023-04-17T22:36:39.196Z,60.40
2023-04-17T22:39:08.079Z,60.60
2023-04-17T22:41:37.082Z,61.20
2023-04-17T22:44:06.074Z,61.50
2023-04-17T22:46:35.215Z,62.50
2023-04-17T22:49:04.269Z,62.80
2023-04-17T22:51:33.476Z,63.30
2023-04-17T22:54:11.455Z,63.90
2023-04-17T22:56:32.879Z,63.60
2023-04-17T22:59:01.880Z,63.60
2023-04-17T23:01:30.816Z,64.30
2023-04-17T23:03:59.724Z,64.40
2023-04-17T23:06:28.652Z,63.20
2023-04-17T23:08:57.750Z,62.70
2023-04-17T23:11:26.631Z,63.20
2023-04-17T23:13:55.523Z,63.70
2023-04-17T23:16:24.548Z,64.50
2023-04-17T23:18:53.682Z,65.00
2023-04-17T23:21:22.908Z,64.00
2023-04-17T23:23:52.018Z,64.60
2023-04-17T23:26:20.899Z,65.10
2023-04-17T23:28:49.789Z,64.50
2023-04-17T23:31:18.823Z,64.60
2023-04-17T23:33:48.072Z,65.50
2023-04-17T23:36:16.977Z,64.40
2023-04-17T23:38:46.103Z,64.60
2023-04-17T23:41:15.480Z,64.80
2023-04-17T23:43:44.678Z,65.10
2023-04-17T23:46:13.915Z,65.40
2023-04-17T23:48:42.965Z,64.70
2023-04-17T23:51:12.381Z,65.70
2023-04-17T23:53:41.582Z,65.30
2023-04-17T23:56:10.663Z,66.00
2023-04-17T23:58:39.971Z,65.70
